sensor_id;sensor_type;location;lat;lon;timestamp;P1;durP1;ratioP1;P2;durP2;ratioP2
47784;SDS011;35233;55.686;37.848;2023-04-24T00:00:13;9.75;;;5.72;;
47784;SDS011;35233;55.686;37.848;2023-04-24T00:02:39;8.45;;;5.30;;
47784;SDS011;35233;55.686;37.848;2023-04-24T00:05:15;8.07;;;5.50;;
47784;SDS011;35233;55.686;37.848;2023-04-24T00:07:42;8.35;;;5.80;;
47784;SDS011;35233;55.686;37.848;2023-04-24T00:10:08;8.70;;;5.80;;
47784;SDS011;35233;55.686;37.848;2023-04-24T00:12:34;8.48;;;5.72;;
47784;SDS011;35233;55.686;37.848;2023-04-24T00:15:00;9.82;;;5.85;;
47784;SDS011;35233;55.686;37.848;2023-04-24T00:17:26;8.32;;;5.68;;
47784;SDS011;35233;55.686;37.848;2023-04-24T00:19:52;8.13;;;5.45;;
47784;SDS011;35233;55.686;37.848;2023-04-24T00:22:23;10.85;;;6.25;;
47784;SDS011;35233;55.686;37.848;2023-04-24T00:24:49;9.27;;;6.20;;
47784;SDS011;35233;55.686;37.848;2023-04-24T00:27:15;8.50;;;5.30;;
47784;SDS011;35233;55.686;37.848;2023-04-24T00:29:40;8.20;;;5.50;;
47784;SDS011;35233;55.686;37.848;2023-04-24T00:32:06;10.88;;;5.80;;
47784;SDS011;35233;55.686;37.848;2023-04-24T00:34:31;8.30;;;5.63;;
47784;SDS011;35233;55.686;37.848;2023-04-24T00:36:57;7.70;;;5.30;;
47784;SDS011;35233;55.686;37.848;2023-04-24T00:39:23;10.88;;;5.65;;
47784;SDS011;35233;55.686;37.848;2023-04-24T00:41:49;10.80;;;6.40;;
47784;SDS011;35233;55.686;37.848;2023-04-24T00:44:16;8.98;;;5.85;;
47784;SDS011;35233;55.686;37.848;2023-04-24T00:46:42;9.50;;;5.85;;
47784;SDS011;35233;55.686;37.848;2023-04-24T00:49:08;7.82;;;5.78;;
47784;SDS011;35233;55.686;37.848;2023-04-24T00:51:33;9.57;;;5.82;;
47784;SDS011;35233;55.686;37.848;2023-04-24T00:54:00;9.63;;;6.07;;
47784;SDS011;35233;55.686;37.848;2023-04-24T00:56:26;8.85;;;5.85;;
47784;SDS011;35233;55.686;37.848;2023-04-24T00:58:52;9.90;;;5.72;;
47784;SDS011;35233;55.686;37.848;2023-04-24T01:01:19;7.90;;;5.57;;
47784;SDS011;35233;55.686;37.848;2023-04-24T01:03:46;11.18;;;6.28;;
47784;SDS011;35233;55.686;37.848;2023-04-24T01:06:13;9.35;;;5.85;;
47784;SDS011;35233;55.686;37.848;2023-04-24T01:08:39;7.72;;;5.95;;
47784;SDS011;35233;55.686;37.848;2023-04-24T01:11:05;8.77;;;5.50;;
47784;SDS011;35233;55.686;37.848;2023-04-24T01:13:31;10.35;;;5.72;;
47784;SDS011;35233;55.686;37.848;2023-04-24T01:15:57;9.75;;;5.65;;
47784;SDS011;35233;55.686;37.848;2023-04-24T01:18:23;7.13;;;5.18;;
47784;SDS011;35233;55.686;37.848;2023-04-24T01:20:48;8.15;;;5.28;;
47784;SDS011;35233;55.686;37.848;2023-04-24T01:23:18;7.95;;;5.60;;
47784;SDS011;35233;55.686;37.848;2023-04-24T01:25:44;9.18;;;5.90;;
47784;SDS011;35233;55.686;37.848;2023-04-24T01:28:10;8.07;;;5.78;;
47784;SDS011;35233;55.686;37.848;2023-04-24T01:30:35;8.35;;;5.20;;
47784;SDS011;35233;55.686;37.848;2023-04-24T01:33:01;11.35;;;5.60;;
47784;SDS011;35233;55.686;37.848;2023-04-24T01:35:27;9.13;;;5.63;;
47784;SDS011;35233;55.686;37.848;2023-04-24T01:37:53;9.45;;;5.65;;
47784;SDS011;35233;55.686;37.848;2023-04-24T01:40:18;7.10;;;5.57;;
47784;SDS011;35233;55.686;37.848;2023-04-24T01:42:44;10.18;;;5.75;;
47784;SDS011;35233;55.686;37.848;2023-04-24T01:45:11;9.02;;;5.50;;
47784;SDS011;35233;55.686;37.848;2023-04-24T01:47:40;8.95;;;5.78;;
47784;SDS011;35233;55.686;37.848;2023-04-24T01:50:05;10.20;;;4.95;;
47784;SDS011;35233;55.686;37.848;2023-04-24T01:52:31;7.07;;;5.18;;
47784;SDS011;35233;55.686;37.848;2023-04-24T01:55:01;6.95;;;5.32;;
47784;SDS011;35233;55.686;37.848;2023-04-24T01:57:28;9.02;;;5.50;;
47784;SDS011;35233;55.686;37.848;2023-04-24T01:59:55;7.72;;;5.55;;
47784;SDS011;35233;55.686;37.848;2023-04-24T02:02:20;9.10;;;5.63;;
47784;SDS011;35233;55.686;37.848;2023-04-24T02:04:48;9.85;;;5.63;;
47784;SDS011;35233;55.686;37.848;2023-04-24T02:07:14;7.93;;;6.00;;
47784;SDS011;35233;55.686;37.848;2023-04-24T02:09:40;8.63;;;5.60;;
47784;SDS011;35233;55.686;37.848;2023-04-24T02:12:05;7.82;;;5.30;;
47784;SDS011;35233;55.686;37.848;2023-04-24T02:14:31;7.40;;;5.57;;
47784;SDS011;35233;55.686;37.848;2023-04-24T02:16:56;8.15;;;5.70;;
47784;SDS011;35233;55.686;37.848;2023-04-24T02:19:22;9.02;;;5.88;;
47784;SDS011;35233;55.686;37.848;2023-04-24T02:21:48;9.45;;;6.05;;
47784;SDS011;35233;55.686;37.848;2023-04-24T02:24:13;8.85;;;5.68;;
47784;SDS011;35233;55.686;37.848;2023-04-24T02:26:39;11.00;;;6.13;;
47784;SDS011;35233;55.686;37.848;2023-04-24T02:29:05;7.50;;;5.15;;
47784;SDS011;35233;55.686;37.848;2023-04-24T02:31:30;7.03;;;4.93;;
47784;SDS011;35233;55.686;37.848;2023-04-24T02:33:56;8.20;;;5.68;;
47784;SDS011;35233;55.686;37.848;2023-04-24T02:36:21;7.90;;;5.32;;
47784;SDS011;35233;55.686;37.848;2023-04-24T02:38:46;7.10;;;5.63;;
47784;SDS011;35233;55.686;37.848;2023-04-24T02:41:12;8.73;;;5.43;;
47784;SDS011;35233;55.686;37.848;2023-04-24T02:43:37;7.47;;;5.47;;
47784;SDS011;35233;55.686;37.848;2023-04-24T02:46:03;8.88;;;5.40;;
47784;SDS011;35233;55.686;37.848;2023-04-24T02:48:28;9.40;;;5.40;;
47784;SDS011;35233;55.686;37.848;2023-04-24T02:50:54;8.63;;;5.57;;
47784;SDS011;35233;55.686;37.848;2023-04-24T02:53:20;7.80;;;5.25;;
47784;SDS011;35233;55.686;37.848;2023-04-24T02:55:45;7.78;;;5.32;;
47784;SDS011;35233;55.686;37.848;2023-04-24T02:58:11;8.07;;;5.30;;
47784;SDS011;35233;55.686;37.848;2023-04-24T03:00:37;8.20;;;4.95;;
47784;SDS011;35233;55.686;37.848;2023-04-24T03:03:03;10.02;;;5.45;;
47784;SDS011;35233;55.686;37.848;2023-04-24T03:05:29;6.80;;;5.32;;
47784;SDS011;35233;55.686;37.848;2023-04-24T03:07:56;7.40;;;4.97;;
47784;SDS011;35233;55.686;37.848;2023-04-24T03:10:21;7.72;;;5.45;;
47784;SDS011;35233;55.686;37.848;2023-04-24T03:12:50;9.90;;;6.07;;
47784;SDS011;35233;55.686;37.848;2023-04-24T03:15:16;7.45;;;5.50;;
47784;SDS011;35233;55.686;37.848;2023-04-24T03:17:41;9.05;;;5.95;;
47784;SDS011;35233;55.686;37.848;2023-04-24T03:20:07;8.68;;;5.45;;
47784;SDS011;35233;55.686;37.848;2023-04-24T03:22:33;7.13;;;5.47;;
47784;SDS011;35233;55.686;37.848;2023-04-24T03:24:59;9.40;;;5.75;;
47784;SDS011;35233;55.686;37.848;2023-04-24T03:27:25;10.02;;;5.90;;
47784;SDS011;35233;55.686;37.848;2023-04-24T03:29:51;8.15;;;5.45;;
47784;SDS011;35233;55.686;37.848;2023-04-24T03:32:20;7.80;;;5.47;;
47784;SDS011;35233;55.686;37.848;2023-04-24T03:34:48;7.80;;;5.18;;
47784;SDS011;35233;55.686;37.848;2023-04-24T03:37:15;7.60;;;5.50;;
47784;SDS011;35233;55.686;37.848;2023-04-24T03:39:41;8.55;;;5.93;;
47784;SDS011;35233;55.686;37.848;2023-04-24T03:42:06;10.70;;;5.78;;
47784;SDS011;35233;55.686;37.848;2023-04-24T03:44:33;9.25;;;5.75;;
47784;SDS011;35233;55.686;37.848;2023-04-24T03:46:59;8.65;;;5.57;;
47784;SDS011;35233;55.686;37.848;2023-04-24T03:49:24;7.30;;;5.55;;
47784;SDS011;35233;55.686;37.848;2023-04-24T03:51:50;8.68;;;5.45;;
47784;SDS011;35233;55.686;37.848;2023-04-24T03:54:17;8.98;;;5.68;;
47784;SDS011;35233;55.686;37.848;2023-04-24T03:56:43;8.50;;;5.50;;
47784;SDS011;35233;55.686;37.848;2023-04-24T03:59:08;8.98;;;5.80;;
47784;SDS011;35233;55.686;37.848;2023-04-24T04:01:34;10.93;;;5.97;;
47784;SDS011;35233;55.686;37.848;2023-04-24T04:04:02;8.82;;;6.00;;
47784;SDS011;35233;55.686;37.848;2023-04-24T04:06:28;8.35;;;5.78;;
47784;SDS011;35233;55.686;37.848;2023-04-24T04:08:55;9.68;;;5.90;;
47784;SDS011;35233;55.686;37.848;2023-04-24T04:11:21;8.45;;;5.47;;
47784;SDS011;35233;55.686;37.848;2023-04-24T04:13:47;9.85;;;6.30;;
47784;SDS011;35233;55.686;37.848;2023-04-24T04:16:13;8.02;;;5.60;;
47784;SDS011;35233;55.686;37.848;2023-04-24T04:18:38;7.05;;;5.40;;
47784;SDS011;35233;55.686;37.848;2023-04-24T04:21:04;8.10;;;5.97;;
47784;SDS011;35233;55.686;37.848;2023-04-24T04:23:29;8.25;;;5.85;;
47784;SDS011;35233;55.686;37.848;2023-04-24T04:25:55;8.10;;;5.72;;
47784;SDS011;35233;55.686;37.848;2023-04-24T04:28:21;7.93;;;5.90;;
47784;SDS011;35233;55.686;37.848;2023-04-24T04:30:46;11.50;;;6.50;;
47784;SDS011;35233;55.686;37.848;2023-04-24T04:33:12;11.45;;;7.38;;
47784;SDS011;35233;55.686;37.848;2023-04-24T04:35:39;15.40;;;8.50;;
47784;SDS011;35233;55.686;37.848;2023-04-24T04:38:06;24.05;;;9.68;;
47784;SDS011;35233;55.686;37.848;2023-04-24T04:40:33;19.42;;;10.52;;
47784;SDS011;35233;55.686;37.848;2023-04-24T04:42:58;16.80;;;9.88;;
47784;SDS011;35233;55.686;37.848;2023-04-24T04:45:24;18.05;;;9.68;;
47784;SDS011;35233;55.686;37.848;2023-04-24T04:47:52;20.08;;;10.82;;
47784;SDS011;35233;55.686;37.848;2023-04-24T04:50:17;17.98;;;10.80;;
47784;SDS011;35233;55.686;37.848;2023-04-24T04:52:44;15.57;;;10.52;;
47784;SDS011;35233;55.686;37.848;2023-04-24T04:55:10;16.77;;;10.10;;
47784;SDS011;35233;55.686;37.848;2023-04-24T04:57:38;17.20;;;10.27;;
47784;SDS011;35233;55.686;37.848;2023-04-24T05:00:04;21.75;;;10.60;;
47784;SDS011;35233;55.686;37.848;2023-04-24T05:02:30;26.63;;;11.27;;
47784;SDS011;35233;55.686;37.848;2023-04-24T05:04:55;25.60;;;10.85;;
47784;SDS011;35233;55.686;37.848;2023-04-24T05:07:21;19.48;;;9.73;;
47784;SDS011;35233;55.686;37.848;2023-04-24T05:09:46;16.58;;;9.27;;
47784;SDS011;35233;55.686;37.848;2023-04-24T05:12:12;18.48;;;10.40;;
47784;SDS011;35233;55.686;37.848;2023-04-24T05:14:37;17.63;;;10.35;;
47784;SDS011;35233;55.686;37.848;2023-04-24T05:17:03;20.20;;;9.30;;
47784;SDS011;35233;55.686;37.848;2023-04-24T05:19:29;14.43;;;10.30;;
47784;SDS011;35233;55.686;37.848;2023-04-24T05:21:54;18.88;;;10.63;;
47784;SDS011;35233;55.686;37.848;2023-04-24T05:24:19;14.25;;;9.70;;
47784;SDS011;35233;55.686;37.848;2023-04-24T05:26:45;15.15;;;9.13;;
47784;SDS011;35233;55.686;37.848;2023-04-24T05:29:10;14.73;;;9.65;;
47784;SDS011;35233;55.686;37.848;2023-04-24T05:31:36;18.00;;;9.63;;
47784;SDS011;35233;55.686;37.848;2023-04-24T05:34:02;21.38;;;10.35;;
47784;SDS011;35233;55.686;37.848;2023-04-24T05:36:27;14.13;;;10.07;;
47784;SDS011;35233;55.686;37.848;2023-04-24T05:38:53;15.02;;;10.25;;
47784;SDS011;35233;55.686;37.848;2023-04-24T05:41:18;19.98;;;10.70;;
47784;SDS011;35233;55.686;37.848;2023-04-24T05:43:44;17.45;;;10.43;;
47784;SDS011;35233;55.686;37.848;2023-04-24T05:46:09;18.52;;;10.02;;
47784;SDS011;35233;55.686;37.848;2023-04-24T05:48:55;16.45;;;10.93;;
47784;SDS011;35233;55.686;37.848;2023-04-24T05:51:20;14.93;;;10.93;;
47784;SDS011;35233;55.686;37.848;2023-04-24T05:53:46;17.60;;;10.88;;
47784;SDS011;35233;55.686;37.848;2023-04-24T05:56:11;17.02;;;11.05;;
47784;SDS011;35233;55.686;37.848;2023-04-24T05:58:37;17.25;;;10.18;;
47784;SDS011;35233;55.686;37.848;2023-04-24T06:01:02;15.50;;;10.05;;
47784;SDS011;35233;55.686;37.848;2023-04-24T06:03:28;16.30;;;10.30;;
47784;SDS011;35233;55.686;37.848;2023-04-24T06:05:54;15.90;;;10.48;;
47784;SDS011;35233;55.686;37.848;2023-04-24T06:08:19;18.05;;;9.85;;
47784;SDS011;35233;55.686;37.848;2023-04-24T06:10:45;16.25;;;10.10;;
47784;SDS011;35233;55.686;37.848;2023-04-24T06:13:12;14.43;;;9.68;;
47784;SDS011;35233;55.686;37.848;2023-04-24T06:15:37;16.05;;;10.02;;
47784;SDS011;35233;55.686;37.848;2023-04-24T06:18:03;16.80;;;10.27;;
47784;SDS011;35233;55.686;37.848;2023-04-24T06:20:28;19.10;;;9.90;;
47784;SDS011;35233;55.686;37.848;2023-04-24T06:22:54;17.92;;;9.68;;
47784;SDS011;35233;55.686;37.848;2023-04-24T06:25:20;14.35;;;9.70;;
47784;SDS011;35233;55.686;37.848;2023-04-24T06:27:45;17.38;;;9.57;;
47784;SDS011;35233;55.686;37.848;2023-04-24T06:30:11;13.80;;;9.25;;
47784;SDS011;35233;55.686;37.848;2023-04-24T06:32:37;17.60;;;9.55;;
47784;SDS011;35233;55.686;37.848;2023-04-24T06:35:02;19.75;;;9.40;;
47784;SDS011;35233;55.686;37.848;2023-04-24T06:37:29;14.05;;;9.13;;
47784;SDS011;35233;55.686;37.848;2023-04-24T06:39:54;18.55;;;9.63;;
47784;SDS011;35233;55.686;37.848;2023-04-24T06:42:20;19.30;;;9.07;;
47784;SDS011;35233;55.686;37.848;2023-04-24T06:44:47;14.70;;;9.02;;
47784;SDS011;35233;55.686;37.848;2023-04-24T06:47:12;18.30;;;8.88;;
47784;SDS011;35233;55.686;37.848;2023-04-24T06:49:38;14.07;;;8.52;;
47784;SDS011;35233;55.686;37.848;2023-04-24T06:52:05;13.90;;;8.77;;
47784;SDS011;35233;55.686;37.848;2023-04-24T06:54:31;14.80;;;8.25;;
47784;SDS011;35233;55.686;37.848;2023-04-24T06:56:57;13.95;;;8.07;;
47784;SDS011;35233;55.686;37.848;2023-04-24T06:59:27;13.52;;;7.80;;
47784;SDS011;35233;55.686;37.848;2023-04-24T07:01:53;16.08;;;8.38;;
47784;SDS011;35233;55.686;37.848;2023-04-24T07:04:19;13.80;;;7.88;;
47784;SDS011;35233;55.686;37.848;2023-04-24T07:06:47;19.50;;;7.57;;
47784;SDS011;35233;55.686;37.848;2023-04-24T07:09:14;12.93;;;7.97;;
47784;SDS011;35233;55.686;37.848;2023-04-24T07:11:44;14.15;;;7.90;;
47784;SDS011;35233;55.686;37.848;2023-04-24T07:14:10;14.73;;;7.80;;
47784;SDS011;35233;55.686;37.848;2023-04-24T07:16:35;12.85;;;7.40;;
47784;SDS011;35233;55.686;37.848;2023-04-24T07:19:01;13.55;;;7.47;;
47784;SDS011;35233;55.686;37.848;2023-04-24T07:21:26;13.15;;;7.18;;
47784;SDS011;35233;55.686;37.848;2023-04-24T07:23:53;11.73;;;7.32;;
47784;SDS011;35233;55.686;37.848;2023-04-24T07:26:20;12.73;;;7.35;;
47784;SDS011;35233;55.686;37.848;2023-04-24T07:28:45;11.32;;;7.47;;
47784;SDS011;35233;55.686;37.848;2023-04-24T07:31:11;16.63;;;7.53;;
47784;SDS011;35233;55.686;37.848;2023-04-24T07:33:37;13.05;;;7.50;;
47784;SDS011;35233;55.686;37.848;2023-04-24T07:36:03;11.27;;;7.57;;
47784;SDS011;35233;55.686;37.848;2023-04-24T07:38:29;10.77;;;6.70;;
47784;SDS011;35233;55.686;37.848;2023-04-24T07:40:55;15.52;;;6.50;;
47784;SDS011;35233;55.686;37.848;2023-04-24T07:43:23;10.45;;;6.22;;
47784;SDS011;35233;55.686;37.848;2023-04-24T07:45:49;9.25;;;6.43;;
47784;SDS011;35233;55.686;37.848;2023-04-24T07:48:16;11.65;;;6.32;;
47784;SDS011;35233;55.686;37.848;2023-04-24T07:50:42;9.85;;;5.93;;
47784;SDS011;35233;55.686;37.848;2023-04-24T07:53:08;8.80;;;6.00;;
47784;SDS011;35233;55.686;37.848;2023-04-24T07:55:34;7.75;;;5.57;;
47784;SDS011;35233;55.686;37.848;2023-04-24T07:57:59;8.82;;;6.10;;
47784;SDS011;35233;55.686;37.848;2023-04-24T08:00:25;10.98;;;6.00;;
47784;SDS011;35233;55.686;37.848;2023-04-24T08:02:51;10.18;;;5.35;;
47784;SDS011;35233;55.686;37.848;2023-04-24T08:05:16;7.30;;;5.40;;
47784;SDS011;35233;55.686;37.848;2023-04-24T08:07:42;8.05;;;6.32;;
47784;SDS011;35233;55.686;37.848;2023-04-24T08:12:51;7.90;;;5.82;;
47784;SDS011;35233;55.686;37.848;2023-04-24T08:15:17;7.82;;;5.82;;
47784;SDS011;35233;55.686;37.848;2023-04-24T08:17:43;9.35;;;5.68;;
47784;SDS011;35233;55.686;37.848;2023-04-24T08:20:09;7.65;;;5.30;;
47784;SDS011;35233;55.686;37.848;2023-04-24T08:22:41;9.13;;;5.57;;
47784;SDS011;35233;55.686;37.848;2023-04-24T08:25:08;6.93;;;5.13;;
47784;SDS011;35233;55.686;37.848;2023-04-24T08:27:34;7.72;;;5.55;;
47784;SDS011;35233;55.686;37.848;2023-04-24T08:30:01;6.60;;;5.28;;
47784;SDS011;35233;55.686;37.848;2023-04-24T08:32:45;7.97;;;5.68;;
47784;SDS011;35233;55.686;37.848;2023-04-24T08:35:11;7.15;;;5.47;;
47784;SDS011;35233;55.686;37.848;2023-04-24T08:37:36;7.18;;;5.20;;
47784;SDS011;35233;55.686;37.848;2023-04-24T08:40:03;7.43;;;5.25;;
47784;SDS011;35233;55.686;37.848;2023-04-24T08:42:50;6.70;;;5.15;;
47784;SDS011;35233;55.686;37.848;2023-04-24T08:45:19;8.82;;;5.80;;
47784;SDS011;35233;55.686;37.848;2023-04-24T08:47:45;7.03;;;5.15;;
47784;SDS011;35233;55.686;37.848;2023-04-24T08:50:11;6.60;;;5.50;;
47784;SDS011;35233;55.686;37.848;2023-04-24T08:52:37;6.60;;;5.50;;
47784;SDS011;35233;55.686;37.848;2023-04-24T08:55:03;6.80;;;5.30;;
47784;SDS011;35233;55.686;37.848;2023-04-24T08:57:29;8.25;;;5.25;;
47784;SDS011;35233;55.686;37.848;2023-04-24T08:59:56;11.02;;;5.35;;
47784;SDS011;35233;55.686;37.848;2023-04-24T09:02:23;6.72;;;5.35;;
47784;SDS011;35233;55.686;37.848;2023-04-24T09:04:49;6.10;;;5.20;;
47784;SDS011;35233;55.686;37.848;2023-04-24T09:07:16;8.10;;;5.78;;
47784;SDS011;35233;55.686;37.848;2023-04-24T09:09:43;10.27;;;5.57;;
47784;SDS011;35233;55.686;37.848;2023-04-24T09:12:09;8.45;;;5.28;;
47784;SDS011;35233;55.686;37.848;2023-04-24T09:14:35;6.38;;;5.30;;
47784;SDS011;35233;55.686;37.848;2023-04-24T09:17:03;8.27;;;5.57;;
47784;SDS011;35233;55.686;37.848;2023-04-24T09:19:29;8.20;;;5.10;;
47784;SDS011;35233;55.686;37.848;2023-04-24T09:21:54;6.20;;;4.90;;
47784;SDS011;35233;55.686;37.848;2023-04-24T09:24:21;7.63;;;5.70;;
47784;SDS011;35233;55.686;37.848;2023-04-24T09:26:48;7.10;;;5.50;;
47784;SDS011;35233;55.686;37.848;2023-04-24T09:29:17;7.00;;;5.05;;
47784;SDS011;35233;55.686;37.848;2023-04-24T09:31:44;9.43;;;5.15;;
47784;SDS011;35233;55.686;37.848;2023-04-24T09:34:11;7.40;;;5.38;;
47784;SDS011;35233;55.686;37.848;2023-04-24T09:36:38;6.43;;;5.20;;
47784;SDS011;35233;55.686;37.848;2023-04-24T09:39:06;6.50;;;4.97;;
47784;SDS011;35233;55.686;37.848;2023-04-24T09:41:35;6.07;;;5.07;;
47784;SDS011;35233;55.686;37.848;2023-04-24T09:44:19;8.52;;;5.72;;
47784;SDS011;35233;55.686;37.848;2023-04-24T09:46:50;7.40;;;5.80;;
47784;SDS011;35233;55.686;37.848;2023-04-24T09:49:23;6.72;;;5.30;;
47784;SDS011;35233;55.686;37.848;2023-04-24T09:52:02;8.25;;;5.53;;
47784;SDS011;35233;55.686;37.848;2023-04-24T09:54:29;6.43;;;5.28;;
47784;SDS011;35233;55.686;37.848;2023-04-24T09:56:54;7.05;;;5.60;;
47784;SDS011;35233;55.686;37.848;2023-04-24T09:59:21;10.50;;;5.68;;
47784;SDS011;35233;55.686;37.848;2023-04-24T10:01:47;8.60;;;5.60;;
47784;SDS011;35233;55.686;37.848;2023-04-24T10:04:24;7.00;;;5.32;;
47784;SDS011;35233;55.686;37.848;2023-04-24T10:06:52;7.80;;;5.75;;
47784;SDS011;35233;55.686;37.848;2023-04-24T10:09:20;8.88;;;5.75;;
47784;SDS011;35233;55.686;37.848;2023-04-24T10:11:47;7.35;;;5.35;;
47784;SDS011;35233;55.686;37.848;2023-04-24T10:14:18;7.68;;;5.50;;
47784;SDS011;35233;55.686;37.848;2023-04-24T10:16:50;7.78;;;5.68;;
47784;SDS011;35233;55.686;37.848;2023-04-24T10:19:18;10.55;;;5.50;;
47784;SDS011;35233;55.686;37.848;2023-04-24T10:21:45;9.43;;;5.75;;
47784;SDS011;35233;55.686;37.848;2023-04-24T10:24:14;8.20;;;5.60;;
47784;SDS011;35233;55.686;37.848;2023-04-24T10:26:41;10.88;;;5.50;;
47784;SDS011;35233;55.686;37.848;2023-04-24T10:29:08;6.80;;;5.32;;
47784;SDS011;35233;55.686;37.848;2023-04-24T10:31:37;9.30;;;5.30;;
47784;SDS011;35233;55.686;37.848;2023-04-24T10:34:07;10.07;;;5.88;;
47784;SDS011;35233;55.686;37.848;2023-04-24T10:36:34;9.25;;;5.53;;
47784;SDS011;35233;55.686;37.848;2023-04-24T10:39:02;6.75;;;4.93;;
47784;SDS011;35233;55.686;37.848;2023-04-24T10:41:36;8.32;;;5.32;;
47784;SDS011;35233;55.686;37.848;2023-04-24T10:46:38;7.32;;;5.28;;
47784;SDS011;35233;55.686;37.848;2023-04-24T10:49:07;8.75;;;5.30;;
47784;SDS011;35233;55.686;37.848;2023-04-24T10:51:45;7.97;;;5.05;;
47784;SDS011;35233;55.686;37.848;2023-04-24T10:54:25;7.78;;;5.03;;
47784;SDS011;35233;55.686;37.848;2023-04-24T10:59:45;7.95;;;5.72;;
47784;SDS011;35233;55.686;37.848;2023-04-24T11:02:13;7.90;;;5.28;;
47784;SDS011;35233;55.686;37.848;2023-04-24T11:04:40;6.78;;;4.57;;
47784;SDS011;35233;55.686;37.848;2023-04-24T11:07:08;7.13;;;5.00;;
47784;SDS011;35233;55.686;37.848;2023-04-24T11:09:35;6.90;;;4.93;;
47784;SDS011;35233;55.686;37.848;2023-04-24T11:12:05;8.43;;;4.93;;
47784;SDS011;35233;55.686;37.848;2023-04-24T11:17:36;6.85;;;4.82;;
47784;SDS011;35233;55.686;37.848;2023-04-24T11:20:07;7.40;;;5.03;;
47784;SDS011;35233;55.686;37.848;2023-04-24T11:22:35;7.32;;;4.85;;
47784;SDS011;35233;55.686;37.848;2023-04-24T11:25:02;6.78;;;4.95;;
47784;SDS011;35233;55.686;37.848;2023-04-24T11:27:29;6.95;;;4.82;;
47784;SDS011;35233;55.686;37.848;2023-04-24T11:32:29;6.43;;;4.60;;
47784;SDS011;35233;55.686;37.848;2023-04-24T11:34:58;6.88;;;4.70;;
47784;SDS011;35233;55.686;37.848;2023-04-24T11:37:38;7.25;;;4.93;;
47784;SDS011;35233;55.686;37.848;2023-04-24T11:40:06;7.33;;;4.70;;
47784;SDS011;35233;55.686;37.848;2023-04-24T11:42:40;7.57;;;4.30;;
47784;SDS011;35233;55.686;37.848;2023-04-24T11:45:12;6.47;;;4.45;;
47784;SDS011;35233;55.686;37.848;2023-04-24T11:47:39;5.20;;;4.22;;
47784;SDS011;35233;55.686;37.848;2023-04-24T11:50:07;9.25;;;4.53;;
47784;SDS011;35233;55.686;37.848;2023-04-24T11:52:38;6.03;;;4.30;;
47784;SDS011;35233;55.686;37.848;2023-04-24T11:55:28;6.65;;;4.50;;
47784;SDS011;35233;55.686;37.848;2023-04-24T11:57:54;6.50;;;4.63;;
47784;SDS011;35233;55.686;37.848;2023-04-24T12:00:25;7.75;;;4.50;;
47784;SDS011;35233;55.686;37.848;2023-04-24T12:03:02;6.93;;;4.45;;
47784;SDS011;35233;55.686;37.848;2023-04-24T12:05:32;6.40;;;4.57;;
47784;SDS011;35233;55.686;37.848;2023-04-24T12:07:57;6.13;;;4.30;;
47784;SDS011;35233;55.686;37.848;2023-04-24T12:10:24;7.32;;;4.22;;
47784;SDS011;35233;55.686;37.848;2023-04-24T12:12:51;7.00;;;4.10;;
47784;SDS011;35233;55.686;37.848;2023-04-24T12:15:18;8.60;;;4.60;;
47784;SDS011;35233;55.686;37.848;2023-04-24T12:17:45;6.45;;;4.10;;
47784;SDS011;35233;55.686;37.848;2023-04-24T12:20:11;5.78;;;4.25;;
47784;SDS011;35233;55.686;37.848;2023-04-24T12:22:43;7.15;;;4.55;;
47784;SDS011;35233;55.686;37.848;2023-04-24T12:25:12;8.05;;;4.53;;
47784;SDS011;35233;55.686;37.848;2023-04-24T12:27:38;8.32;;;4.57;;
47784;SDS011;35233;55.686;37.848;2023-04-24T12:30:05;6.78;;;4.53;;
47784;SDS011;35233;55.686;37.848;2023-04-24T12:32:31;5.32;;;4.20;;
47784;SDS011;35233;55.686;37.848;2023-04-24T12:34:57;8.18;;;4.63;;
47784;SDS011;35233;55.686;37.848;2023-04-24T12:37:23;6.82;;;4.53;;
47784;SDS011;35233;55.686;37.848;2023-04-24T12:40:00;6.20;;;4.30;;
47784;SDS011;35233;55.686;37.848;2023-04-24T12:42:33;5.57;;;4.20;;
47784;SDS011;35233;55.686;37.848;2023-04-24T12:45:00;5.82;;;4.05;;
47784;SDS011;35233;55.686;37.848;2023-04-24T12:47:29;6.30;;;4.50;;
47784;SDS011;35233;55.686;37.848;2023-04-24T12:49:55;7.18;;;4.60;;
47784;SDS011;35233;55.686;37.848;2023-04-24T12:52:24;5.07;;;4.28;;
47784;SDS011;35233;55.686;37.848;2023-04-24T12:54:54;7.82;;;4.18;;
47784;SDS011;35233;55.686;37.848;2023-04-24T12:57:21;9.75;;;4.90;;
47784;SDS011;35233;55.686;37.848;2023-04-24T12:59:47;8.57;;;4.72;;
47784;SDS011;35233;55.686;37.848;2023-04-24T13:02:13;6.38;;;4.90;;
47784;SDS011;35233;55.686;37.848;2023-04-24T13:04:39;7.30;;;4.68;;
47784;SDS011;35233;55.686;37.848;2023-04-24T13:07:05;5.97;;;4.63;;
47784;SDS011;35233;55.686;37.848;2023-04-24T13:09:30;10.75;;;4.80;;
47784;SDS011;35233;55.686;37.848;2023-04-24T13:11:56;7.10;;;4.35;;
47784;SDS011;35233;55.686;37.848;2023-04-24T13:14:22;10.98;;;4.30;;
47784;SDS011;35233;55.686;37.848;2023-04-24T13:16:48;9.15;;;4.40;;
47784;SDS011;35233;55.686;37.848;2023-04-24T13:19:14;5.95;;;4.32;;
47784;SDS011;35233;55.686;37.848;2023-04-24T13:21:40;6.65;;;4.03;;
47784;SDS011;35233;55.686;37.848;2023-04-24T13:24:05;7.43;;;4.53;;
47784;SDS011;35233;55.686;37.848;2023-04-24T13:26:32;6.28;;;4.57;;
47784;SDS011;35233;55.686;37.848;2023-04-24T13:28:58;7.85;;;4.03;;
47784;SDS011;35233;55.686;37.848;2023-04-24T13:31:24;6.15;;;4.18;;
47784;SDS011;35233;55.686;37.848;2023-04-24T13:33:49;6.85;;;4.40;;
47784;SDS011;35233;55.686;37.848;2023-04-24T13:36:15;5.68;;;4.07;;
47784;SDS011;35233;55.686;37.848;2023-04-24T13:38:42;6.07;;;4.13;;
47784;SDS011;35233;55.686;37.848;2023-04-24T13:41:09;6.40;;;3.83;;
47784;SDS011;35233;55.686;37.848;2023-04-24T13:43:35;6.20;;;3.90;;
47784;SDS011;35233;55.686;37.848;2023-04-24T13:46:01;5.65;;;4.00;;
47784;SDS011;35233;55.686;37.848;2023-04-24T13:48:28;6.15;;;3.53;;
47784;SDS011;35233;55.686;37.848;2023-04-24T13:50:54;6.97;;;4.00;;
47784;SDS011;35233;55.686;37.848;2023-04-24T13:53:20;4.82;;;3.70;;
47784;SDS011;35233;55.686;37.848;2023-04-24T13:55:45;8.13;;;3.63;;
47784;SDS011;35233;55.686;37.848;2023-04-24T13:58:11;6.40;;;3.90;;
47784;SDS011;35233;55.686;37.848;2023-04-24T14:00:36;6.40;;;3.97;;
47784;SDS011;35233;55.686;37.848;2023-04-24T14:03:02;7.55;;;4.28;;
47784;SDS011;35233;55.686;37.848;2023-04-24T14:05:28;6.20;;;4.15;;
47784;SDS011;35233;55.686;37.848;2023-04-24T14:07:53;6.22;;;4.00;;
47784;SDS011;35233;55.686;37.848;2023-04-24T14:10:19;7.93;;;4.53;;
47784;SDS011;35233;55.686;37.848;2023-04-24T14:12:44;5.40;;;3.95;;
47784;SDS011;35233;55.686;37.848;2023-04-24T14:15:10;7.25;;;4.20;;
47784;SDS011;35233;55.686;37.848;2023-04-24T14:17:38;5.70;;;4.00;;
47784;SDS011;35233;55.686;37.848;2023-04-24T14:20:04;6.65;;;4.45;;
47784;SDS011;35233;55.686;37.848;2023-04-24T14:22:30;9.68;;;4.00;;
47784;SDS011;35233;55.686;37.848;2023-04-24T14:24:55;6.45;;;4.28;;
47784;SDS011;35233;55.686;37.848;2023-04-24T14:27:21;9.35;;;4.25;;
47784;SDS011;35233;55.686;37.848;2023-04-24T14:29:46;6.45;;;3.83;;
47784;SDS011;35233;55.686;37.848;2023-04-24T14:32:12;11.00;;;4.22;;
47784;SDS011;35233;55.686;37.848;2023-04-24T14:34:40;7.95;;;4.00;;
47784;SDS011;35233;55.686;37.848;2023-04-24T14:37:05;6.93;;;4.15;;
47784;SDS011;35233;55.686;37.848;2023-04-24T14:39:31;7.55;;;4.10;;